sensor_id;sensor_type;location;lat;lon;timestamp;temperature;humidity
21489;DHT22;10906;45.194;5.684;2023-07-08T05:21:20;23.40;90.50
21489;DHT22;10906;45.194;5.684;2023-07-08T05:24:05;23.40;91.10
21489;DHT22;10906;45.194;5.684;2023-07-08T05:51:34;23.70;90.00
21489;DHT22;10906;45.194;5.684;2023-07-08T07:33:00;25.70;83.10
21489;DHT22;10906;45.194;5.684;2023-07-08T08:25:19;27.10;79.40
21489;DHT22;10906;45.194;5.684;2023-07-08T08:36:46;27.40;79.30
21489;DHT22;10906;45.194;5.684;2023-07-08T08:42:26;27.60;78.80
21489;DHT22;10906;45.194;5.684;2023-07-08T08:45:15;27.80;78.30
21489;DHT22;10906;45.194;5.684;2023-07-08T08:48:04;27.90;77.50
21489;DHT22;10906;45.194;5.684;2023-07-08T08:51:18;27.80;78.60
21489;DHT22;10906;45.194;5.684;2023-07-08T08:54:03;27.90;77.60
21489;DHT22;10906;45.194;5.684;2023-07-08T08:57:03;28.20;77.70
21489;DHT22;10906;45.194;5.684;2023-07-08T09:02:42;28.40;76.70
21489;DHT22;10906;45.194;5.684;2023-07-08T09:08:34;28.50;75.80
21489;DHT22;10906;45.194;5.684;2023-07-08T09:14:28;28.80;74.50
21489;DHT22;10906;45.194;5.684;2023-07-08T09:17:32;28.80;72.90
21489;DHT22;10906;45.194;5.684;2023-07-08T09:20:25;28.90;75.80
21489;DHT22;10906;45.194;5.684;2023-07-08T09:26:09;29.00;74.10
21489;DHT22;10906;45.194;5.684;2023-07-08T09:28:57;29.10;74.10
21489;DHT22;10906;45.194;5.684;2023-07-08T09:31:41;29.10;76.60
21489;DHT22;10906;45.194;5.684;2023-07-08T09:35:01;29.40;75.30
21489;DHT22;10906;45.194;5.684;2023-07-08T09:37:47;29.40;72.50
21489;DHT22;10906;45.194;5.684;2023-07-08T09:40:35;29.40;73.00
21489;DHT22;10906;45.194;5.684;2023-07-08T09:43:30;29.40;74.20
21489;DHT22;10906;45.194;5.684;2023-07-08T09:46:22;29.60;71.30
21489;DHT22;10906;45.194;5.684;2023-07-08T09:49:29;29.60;73.80
21489;DHT22;10906;45.194;5.684;2023-07-08T09:52:14;29.60;69.70
21489;DHT22;10906;45.194;5.684;2023-07-08T09:54:59;29.80;72.80
21489;DHT22;10906;45.194;5.684;2023-07-08T10:00:41;29.90;69.80
21489;DHT22;10906;45.194;5.684;2023-07-08T10:03:37;30.10;67.80
21489;DHT22;10906;45.194;5.684;2023-07-08T10:06:25;30.00;70.30
21489;DHT22;10906;45.194;5.684;2023-07-08T10:09:13;30.00;69.40
21489;DHT22;10906;45.194;5.684;2023-07-08T10:12:04;30.10;68.80
21489;DHT22;10906;45.194;5.684;2023-07-08T10:28:37;30.80;66.40
21489;DHT22;10906;45.194;5.684;2023-07-08T10:43:40;30.90;64.20
21489;DHT22;10906;45.194;5.684;2023-07-08T10:47:49;31.00;65.10
21489;DHT22;10906;45.194;5.684;2023-07-08T10:50:17;31.10;61.60
21489;DHT22;10906;45.194;5.684;2023-07-08T10:53:17;31.00;62.60
21489;DHT22;10906;45.194;5.684;2023-07-08T10:56:34;30.90;64.00
21489;DHT22;10906;45.194;5.684;2023-07-08T11:02:53;31.40;67.10
21489;DHT22;10906;45.194;5.684;2023-07-08T11:05:45;31.50;63.20
21489;DHT22;10906;45.194;5.684;2023-07-08T11:08:37;30.40;63.90
21489;DHT22;10906;45.194;5.684;2023-07-08T11:14:15;31.80;61.30
21489;DHT22;10906;45.194;5.684;2023-07-08T11:17:22;31.70;61.80
21489;DHT22;10906;45.194;5.684;2023-07-08T11:23:26;31.60;62.80
21489;DHT22;10906;45.194;5.684;2023-07-08T11:26:33;31.80;63.10
21489;DHT22;10906;45.194;5.684;2023-07-08T11:37:17;33.60;64.10
21489;DHT22;10906;45.194;5.684;2023-07-08T11:40:56;32.80;60.60
21489;DHT22;10906;45.194;5.684;2023-07-08T11:43:51;32.80;59.30
21489;DHT22;10906;45.194;5.684;2023-07-08T11:50:44;32.30;60.20
21489;DHT22;10906;45.194;5.684;2023-07-08T11:59:12;32.80;62.80
21489;DHT22;10906;45.194;5.684;2023-07-08T12:04:58;33.10;61.40
21489;DHT22;10906;45.194;5.684;2023-07-08T12:07:47;33.00;61.10
21489;DHT22;10906;45.194;5.684;2023-07-08T12:10:38;33.10;60.90
21489;DHT22;10906;45.194;5.684;2023-07-08T12:13:24;33.10;61.40
21489;DHT22;10906;45.194;5.684;2023-07-08T12:16:13;33.30;61.70
21489;DHT22;10906;45.194;5.684;2023-07-08T12:19:01;33.50;63.10
21489;DHT22;10906;45.194;5.684;2023-07-08T12:21:48;33.70;60.60
21489;DHT22;10906;45.194;5.684;2023-07-08T12:24:33;33.60;61.20
21489;DHT22;10906;45.194;5.684;2023-07-08T12:27:18;33.40;61.30
21489;DHT22;10906;45.194;5.684;2023-07-08T12:30:02;33.40;62.30
21489;DHT22;10906;45.194;5.684;2023-07-08T12:32:47;33.70;62.60
21489;DHT22;10906;45.194;5.684;2023-07-08T12:35:33;34.00;62.20
21489;DHT22;10906;45.194;5.684;2023-07-08T12:38:26;34.40;60.90
21489;DHT22;10906;45.194;5.684;2023-07-08T12:41:16;34.20;59.40
21489;DHT22;10906;45.194;5.684;2023-07-08T12:44:01;34.40;61.40
21489;DHT22;10906;45.194;5.684;2023-07-08T12:46:48;34.60;60.20
21489;DHT22;10906;45.194;5.684;2023-07-08T12:49:33;34.70;59.70
21489;DHT22;10906;45.194;5.684;2023-07-08T12:52:23;34.70;60.80
21489;DHT22;10906;45.194;5.684;2023-07-08T12:55:09;34.60;60.10
21489;DHT22;10906;45.194;5.684;2023-07-08T12:57:55;34.50;59.20
21489;DHT22;10906;45.194;5.684;2023-07-08T13:03:19;34.10;59.40
21489;DHT22;10906;45.194;5.684;2023-07-08T13:06:07;33.50;60.90
21489;DHT22;10906;45.194;5.684;2023-07-08T13:08:54;33.40;60.80
21489;DHT22;10906;45.194;5.684;2023-07-08T13:20:29;34.00;60.30
21489;DHT22;10906;45.194;5.684;2023-07-08T13:23:14;33.70;60.10
21489;DHT22;10906;45.194;5.684;2023-07-08T13:25:59;33.70;61.50
21489;DHT22;10906;45.194;5.684;2023-07-08T13:28:44;33.90;62.20
21489;DHT22;10906;45.194;5.684;2023-07-08T13:31:35;33.70;60.60
21489;DHT22;10906;45.194;5.684;2023-07-08T13:34:24;33.90;60.60
21489;DHT22;10906;45.194;5.684;2023-07-08T13:37:12;34.30;60.30
21489;DHT22;10906;45.194;5.684;2023-07-08T13:39:57;34.20;59.70
21489;DHT22;10906;45.194;5.684;2023-07-08T13:42:52;34.00;60.30
21489;DHT22;10906;45.194;5.684;2023-07-08T13:45:36;33.80;61.50
21489;DHT22;10906;45.194;5.684;2023-07-08T13:48:23;33.60;61.20
21489;DHT22;10906;45.194;5.684;2023-07-08T13:51:20;33.40;60.60
21489;DHT22;10906;45.194;5.684;2023-07-08T13:54:26;33.30;60.80
21489;DHT22;10906;45.194;5.684;2023-07-08T13:57:18;33.30;62.00
21489;DHT22;10906;45.194;5.684;2023-07-08T14:00:04;33.10;61.70
21489;DHT22;10906;45.194;5.684;2023-07-08T14:02:51;33.10;61.80
21489;DHT22;10906;45.194;5.684;2023-07-08T14:05:37;33.40;62.40
21489;DHT22;10906;45.194;5.684;2023-07-08T14:08:22;34.00;59.60
21489;DHT22;10906;45.194;5.684;2023-07-08T14:11:07;33.90;61.30
21489;DHT22;10906;45.194;5.684;2023-07-08T14:13:51;34.10;62.50
21489;DHT22;10906;45.194;5.684;2023-07-08T14:16:39;34.30;61.00
21489;DHT22;10906;45.194;5.684;2023-07-08T14:19:26;34.60;61.00
21489;DHT22;10906;45.194;5.684;2023-07-08T14:28:49;35.00;58.40
21489;DHT22;10906;45.194;5.684;2023-07-08T14:31:34;35.40;60.60
21489;DHT22;10906;45.194;5.684;2023-07-08T14:34:24;35.90;59.60
21489;DHT22;10906;45.194;5.684;2023-07-08T14:41:03;35.80;55.20
21489;DHT22;10906;45.194;5.684;2023-07-08T14:43:48;35.90;55.50
21489;DHT22;10906;45.194;5.684;2023-07-08T14:46:33;36.10;58.30
21489;DHT22;10906;45.194;5.684;2023-07-08T14:49:20;36.70;57.90
21489;DHT22;10906;45.194;5.684;2023-07-08T14:54:49;36.30;55.30
21489;DHT22;10906;45.194;5.684;2023-07-08T14:57:44;36.20;57.50
21489;DHT22;10906;45.194;5.684;2023-07-08T15:00:29;36.20;56.40
21489;DHT22;10906;45.194;5.684;2023-07-08T15:03:14;36.00;56.70
21489;DHT22;10906;45.194;5.684;2023-07-08T15:05:59;36.00;57.20
21489;DHT22;10906;45.194;5.684;2023-07-08T15:08:43;36.00;58.00
21489;DHT22;10906;45.194;5.684;2023-07-08T15:11:28;36.80;57.80
21489;DHT22;10906;45.194;5.684;2023-07-08T15:14:22;37.20;56.70
21489;DHT22;10906;45.194;5.684;2023-07-08T15:17:14;37.10;54.60
21489;DHT22;10906;45.194;5.684;2023-07-08T15:20:00;36.80;55.20
21489;DHT22;10906;45.194;5.684;2023-07-08T15:22:45;36.90;55.90
21489;DHT22;10906;45.194;5.684;2023-07-08T15:25:29;36.70;56.40
21489;DHT22;10906;45.194;5.684;2023-07-08T15:31:28;36.70;55.50
21489;DHT22;10906;45.194;5.684;2023-07-08T15:34:19;36.70;55.00
21489;DHT22;10906;45.194;5.684;2023-07-08T15:37:04;36.50;55.40
21489;DHT22;10906;45.194;5.684;2023-07-08T15:39:49;36.40;56.60
21489;DHT22;10906;45.194;5.684;2023-07-08T15:45:57;36.50;55.90
21489;DHT22;10906;45.194;5.684;2023-07-08T15:48:45;36.50;55.50
21489;DHT22;10906;45.194;5.684;2023-07-08T15:51:29;36.50;56.20
21489;DHT22;10906;45.194;5.684;2023-07-08T16:00:19;36.60;55.40
21489;DHT22;10906;45.194;5.684;2023-07-08T16:03:12;36.30;55.50
21489;DHT22;10906;45.194;5.684;2023-07-08T16:05:58;36.20;55.90
21489;DHT22;10906;45.194;5.684;2023-07-08T16:08:44;36.20;55.70
21489;DHT22;10906;45.194;5.684;2023-07-08T16:11:30;36.00;55.50
21489;DHT22;10906;45.194;5.684;2023-07-08T16:14:16;36.10;56.40
21489;DHT22;10906;45.194;5.684;2023-07-08T16:17:02;36.10;55.90
21489;DHT22;10906;45.194;5.684;2023-07-08T16:19:46;36.00;57.10
21489;DHT22;10906;45.194;5.684;2023-07-08T16:22:31;35.80;56.80
21489;DHT22;10906;45.194;5.684;2023-07-08T16:25:18;35.80;56.90
21489;DHT22;10906;45.194;5.684;2023-07-08T16:28:04;35.90;56.40
21489;DHT22;10906;45.194;5.684;2023-07-08T16:30:48;36.10;56.60
21489;DHT22;10906;45.194;5.684;2023-07-08T16:33:33;36.00;56.40
21489;DHT22;10906;45.194;5.684;2023-07-08T16:36:21;35.90;57.60
21489;DHT22;10906;45.194;5.684;2023-07-08T16:39:05;35.70;56.80
21489;DHT22;10906;45.194;5.684;2023-07-08T16:41:50;35.70;57.60
21489;DHT22;10906;45.194;5.684;2023-07-08T16:44:35;35.10;57.70
21489;DHT22;10906;45.194;5.684;2023-07-08T16:47:20;34.90;58.70
21489;DHT22;10906;45.194;5.684;2023-07-08T16:50:05;34.60;58.80
21489;DHT22;10906;45.194;5.684;2023-07-08T16:52:49;34.30;58.50
21489;DHT22;10906;45.194;5.684;2023-07-08T16:55:34;34.10;59.30
21489;DHT22;10906;45.194;5.684;2023-07-08T16:58:29;33.80;58.40
21489;DHT22;10906;45.194;5.684;2023-07-08T17:01:18;33.90;59.00
21489;DHT22;10906;45.194;5.684;2023-07-08T17:04:03;33.80;59.50
21489;DHT22;10906;45.194;5.684;2023-07-08T17:12:34;33.70;59.60
21489;DHT22;10906;45.194;5.684;2023-07-08T17:15:21;32.60;59.70
21489;DHT22;10906;45.194;5.684;2023-07-08T17:18:19;33.60;60.30
21489;DHT22;10906;45.194;5.684;2023-07-08T17:21:11;33.40;60.60
21489;DHT22;10906;45.194;5.684;2023-07-08T17:23:56;33.20;60.40
21489;DHT22;10906;45.194;5.684;2023-07-08T17:26:41;33.30;61.80
21489;DHT22;10906;45.194;5.684;2023-07-08T17:29:26;33.10;62.10
21489;DHT22;10906;45.194;5.684;2023-07-08T17:32:11;31.10;61.20
21489;DHT22;10906;45.194;5.684;2023-07-08T17:34:56;33.00;62.10
21489;DHT22;10906;45.194;5.684;2023-07-08T17:37:41;33.00;62.30
21489;DHT22;10906;45.194;5.684;2023-07-08T17:40:27;32.90;61.00
21489;DHT22;10906;45.194;5.684;2023-07-08T17:43:12;32.80;61.20
21489;DHT22;10906;45.194;5.684;2023-07-08T17:45:56;32.90;62.60
21489;DHT22;10906;45.194;5.684;2023-07-08T17:48:41;32.70;62.30
21489;DHT22;10906;45.194;5.684;2023-07-08T17:51:30;32.50;61.10
21489;DHT22;10906;45.194;5.684;2023-07-08T17:54:15;32.50;62.10
21489;DHT22;10906;45.194;5.684;2023-07-08T17:57:00;32.40;62.50
21489;DHT22;10906;45.194;5.684;2023-07-08T17:59:46;32.40;62.20
21489;DHT22;10906;45.194;5.684;2023-07-08T18:02:30;32.30;62.00
21489;DHT22;10906;45.194;5.684;2023-07-08T18:05:21;32.20;63.10
21489;DHT22;10906;45.194;5.684;2023-07-08T18:08:05;32.10;62.10
21489;DHT22;10906;45.194;5.684;2023-07-08T18:13:43;32.10;62.90
21489;DHT22;10906;45.194;5.684;2023-07-08T18:16:28;31.90;66.40
21489;DHT22;10906;45.194;5.684;2023-07-08T18:26:51;31.80;65.30
21489;DHT22;10906;45.194;5.684;2023-07-08T18:29:35;31.50;65.50
21489;DHT22;10906;45.194;5.684;2023-07-08T18:32:20;31.50;65.00
21489;DHT22;10906;45.194;5.684;2023-07-08T18:35:20;31.40;65.30
21489;DHT22;10906;45.194;5.684;2023-07-08T18:38:05;31.30;64.30
21489;DHT22;10906;45.194;5.684;2023-07-08T18:40:50;31.20;65.30
21489;DHT22;10906;45.194;5.684;2023-07-08T18:43:34;31.00;66.20
21489;DHT22;10906;45.194;5.684;2023-07-08T18:46:19;30.90;66.50
21489;DHT22;10906;45.194;5.684;2023-07-08T18:49:04;30.80;66.60
21489;DHT22;10906;45.194;5.684;2023-07-08T18:51:49;30.80;66.00
21489;DHT22;10906;45.194;5.684;2023-07-08T18:54:33;30.70;66.30
21489;DHT22;10906;45.194;5.684;2023-07-08T18:57:18;30.80;66.40
21489;DHT22;10906;45.194;5.684;2023-07-08T19:00:03;30.50;67.00
21489;DHT22;10906;45.194;5.684;2023-07-08T19:02:59;30.60;66.90
21489;DHT22;10906;45.194;5.684;2023-07-08T19:05:44;30.40;66.20
21489;DHT22;10906;45.194;5.684;2023-07-08T19:08:29;30.20;66.90
21489;DHT22;10906;45.194;5.684;2023-07-08T19:11:19;30.20;67.30
21489;DHT22;10906;45.194;5.684;2023-07-08T19:14:12;30.10;66.40
21489;DHT22;10906;45.194;5.684;2023-07-08T19:16:57;30.00;66.70
21489;DHT22;10906;45.194;5.684;2023-07-08T19:19:42;30.00;67.40
21489;DHT22;10906;45.194;5.684;2023-07-08T19:24:55;29.90;66.80
21489;DHT22;10906;45.194;5.684;2023-07-08T19:27:39;29.80;68.50
21489;DHT22;10906;45.194;5.684;2023-07-08T19:30:25;29.70;68.70
21489;DHT22;10906;45.194;5.684;2023-07-08T19:40:50;29.80;69.20
21489;DHT22;10906;45.194;5.684;2023-07-08T19:43:35;29.60;69.40
21489;DHT22;10906;45.194;5.684;2023-07-08T19:46:19;29.50;70.20
21489;DHT22;10906;45.194;5.684;2023-07-08T19:49:04;29.40;70.40
21489;DHT22;10906;45.194;5.684;2023-07-08T19:51:49;29.40;70.80
21489;DHT22;10906;45.194;5.684;2023-07-08T19:54:34;29.40;71.10
21489;DHT22;10906;45.194;5.684;2023-07-08T19:57:18;29.30;71.30
21489;DHT22;10906;45.194;5.684;2023-07-08T20:00:03;29.20;71.40
21489;DHT22;10906;45.194;5.684;2023-07-08T20:02:49;29.20;70.70
21489;DHT22;10906;45.194;5.684;2023-07-08T20:05:35;27.50;69.80
21489;DHT22;10906;45.194;5.684;2023-07-08T20:08:30;29.00;72.60
21489;DHT22;10906;45.194;5.684;2023-07-08T20:11:16;28.90;71.80
21489;DHT22;10906;45.194;5.684;2023-07-08T20:16:28;28.90;72.00
21489;DHT22;10906;45.194;5.684;2023-07-08T20:19:22;28.90;73.40
21489;DHT22;10906;45.194;5.684;2023-07-08T20:22:13;28.70;73.30
21489;DHT22;10906;45.194;5.684;2023-07-08T20:24:59;28.70;72.60
21489;DHT22;10906;45.194;5.684;2023-07-08T20:27:45;28.60;73.90
21489;DHT22;10906;45.194;5.684;2023-07-08T20:30:30;28.60;72.80
21489;DHT22;10906;45.194;5.684;2023-07-08T20:33:15;28.50;72.20
21489;DHT22;10906;45.194;5.684;2023-07-08T20:58:15;28.40;74.40
21489;DHT22;10906;45.194;5.684;2023-07-08T21:01:00;27.80;74.60
21489;DHT22;10906;45.194;5.684;2023-07-08T21:03:44;27.70;75.10
21489;DHT22;10906;45.194;5.684;2023-07-08T21:06:30;27.70;75.70
21489;DHT22;10906;45.194;5.684;2023-07-08T21:09:19;27.80;75.30
21489;DHT22;10906;45.194;5.684;2023-07-08T21:12:04;27.70;75.30
21489;DHT22;10906;45.194;5.684;2023-07-08T21:14:49;27.60;76.20
21489;DHT22;10906;45.194;5.684;2023-07-08T21:17:33;27.60;77.50
21489;DHT22;10906;45.194;5.684;2023-07-08T21:20:23;27.60;77.20
21489;DHT22;10906;45.194;5.684;2023-07-08T21:23:16;27.50;76.80
21489;DHT22;10906;45.194;5.684;2023-07-08T21:26:00;27.50;77.10
21489;DHT22;10906;45.194;5.684;2023-07-08T21:28:46;27.40;78.50
21489;DHT22;10906;45.194;5.684;2023-07-08T21:31:31;27.30;77.40
21489;DHT22;10906;45.194;5.684;2023-07-08T21:34:16;27.30;79.10
21489;DHT22;10906;45.194;5.684;2023-07-08T21:37:01;27.30;79.00
21489;DHT22;10906;45.194;5.684;2023-07-08T21:39:46;27.30;78.50
21489;DHT22;10906;45.194;5.684;2023-07-08T21:42:31;27.30;78.20
21489;DHT22;10906;45.194;5.684;2023-07-08T21:45:24;27.30;78.50
21489;DHT22;10906;45.194;5.684;2023-07-08T21:48:10;27.20;77.90
21489;DHT22;10906;45.194;5.684;2023-07-08T21:50:57;27.10;77.90
21489;DHT22;10906;45.194;5.684;2023-07-08T21:53:46;27.10;78.10
21489;DHT22;10906;45.194;5.684;2023-07-08T21:56:32;27.20;78.00
21489;DHT22;10906;45.194;5.684;2023-07-08T21:59:18;27.10;79.20
